Airfield :
LOGIN :

Register | Disclaimer

   EN    FR    IT 

 










Legend :    VFR   Marginal VFR   IFR   Intensive IFR   Very Intensive IFR
Visi :
Ceiling :
>= 8 km
>= 3000ft
5 to 8 km
1000 to 3000 ft
1500m to 5 km
500 to 1000 ft
800 to 1500m
200 to 500 ft
< 800m
< 200 ft
Symbols :   Thunderstorms  Fog  Heavy snow  Heavy precipitations  Wind > 20 kt
SIGMETs :     Misc.  Thunderstorms  Icing  Turbulence  Mountain Waves  Volcanic Ashes






- Airport Elevation : 53 ft
- IATA code : LBC


EDHL - Lübeck

CURRENT METAR :
  • 231720Z 29006KT 250V330 9999 -RA BKN010 04/03 Q1003

EXPIRED METARs :
  • 231650Z 28007KT 240V320 9999 -RA BKN009 04/03 Q1002
  • 231620Z 27009KT 240V310 9999 -RA BKN010 04/03 Q1002
  • 231550Z 27007KT 230V330 9999 -RA SCT007 BKN011 04/03 Q1001
  • 231520Z 28006KT 240V330 9999 -RA BKN010 04/04 Q1000
  • 231450Z 27005KT 230V310 9999 -RA BKN010 05/04 Q1000
  • 231420Z 28004KT 250V320 9999 BKN008 05/04 Q1000

TAF TAF EDHL
Valid from the 23 at 15:00 until the 23 at 21:00 UTC


231400Z 2315/2321 25007KT 9999 BKN012
TEMPO 2315/2319 4000 -RADZ BKN007
BECMG 2315/2317 28012KT
BECMG 2317/2318 29015G30KT BKN015
PROB30
TEMPO 2319/2321 30020G35KT SHRA BKN012CB



MET'MAP, your aeronautical weather chart ! - Copyright ORBIFLY December 2007 - Disclaimer

ORBIFLY MET'MAP TEAM :

Programming & Development : Alexandra Zaïnal
Concept & original design : Baudouin d'Aumeries
Assistance for programming : Marc-Olivier Méhu
Technical & hardware support : Manuel Goepfert

Contact : metmap@orbifly.com




SOURCES & CREDITS :

   NOAA